Beatty, Nevada Weather observations

Data are for observation ending at time listed.
 Day   Time    Ave.   Ave.  Ave.  Vector   Max.   Stn.    Total    Solar   Ave.  
  of    of     Air    Rel.  Wind   Wind    Wind   Baro.  Precip.   Rad.    Soil  
Year   Day     Temp.  Hum.  Speed  Dir.    Gust   Pres.                    Temp. 
2015   (PST)    F      %     mph   deg.    mph     mb.     in.     W/m2     F   
------------------------------------------------------------------------------
 208    3:10   70.0    28    2.1    20      4.1   895.7    0.00       0    85.8
 208    3:20   69.3    28    1.7    42      4.3   895.8    0.00       0    85.7
 208    3:30   69.4    29    1.9    55      4.7   895.9    0.00       0    85.7
 208    3:40   69.9    29    3.5     4      6.9   896.3    0.00       0    85.7
 208    3:50   69.7    29    2.1    68      4.7   896.5    0.00       0    85.6
 208    4:00   69.0    30    1.8    34      5.6   896.5    0.00       0    85.6
 208    4:10   69.2    29    2.8    42      5.8   896.6    0.00       0    85.6
 208    4:20   69.1    29    2.6    49      6.2   896.8    0.00       0    85.6
 208    4:30   68.5    30    2.8    49      6.5   896.9    0.00       0    85.5
 208    4:40   68.8    30    3.2    41      8.3   897.0    0.00       0    85.5
 208    4:50   69.2    29    2.7    53      6.4   897.2    0.00       1    85.4
 208    5:00   69.6    28    4.0    46      9.7   897.4    0.00       5    85.4
 208    5:10   69.4    27    5.1    10     10.5   897.5    0.00       8    85.4
 208    5:20   67.7    28    6.6    10     14.2   897.8    0.00      12    85.3
 208    5:30   67.4    28    5.8     2      9.6   898.0    0.00      24    85.3
 208    5:40   69.4    22    4.9    31     10.4   898.1    0.00      82    85.2
 208    5:50   73.3    18    6.5    21     16.1   898.2    0.00     107    85.2
 208    6:00   73.9    18    6.5    29     13.1   898.3    0.00     132    85.1
 208    6:10   74.3    18    6.2    26     14.8   898.4    0.00     157    85.1
 208    6:20   74.8    18    6.5    10     16.3   898.6    0.00     183    85.1
 208    6:30   75.2    18    6.8     6     13.3   898.7    0.00     146    85.0
 208    6:40   75.8    19    7.5     7     13.7   898.8    0.00      57    85.0
 208    6:50   76.2    18    9.5     4     18.5   898.9    0.00      45    85.0
 208    7:00   76.1    19   10.9     6     18.3   898.9    0.00      54    84.9
 208    7:10   76.7    18    9.6     6     16.4   898.9    0.00      49    84.9
 208    7:20   77.1    18   12.2     7     21.9   898.9    0.00      38    84.8
 208    7:30   77.3    18   12.7     6     20.0   898.9    0.00      53    84.8
 208    7:40   78.0    17   10.3     5     21.0   898.9    0.00     109    84.8
 208    7:50   78.3    17   11.9     7     18.4   899.0    0.00     413    84.7
 208    8:00   78.7    16   11.9     9     21.0   899.0    0.00     458    84.7
 208    8:10   79.5    16   10.0     1     17.3   899.0    0.00     484    84.7
 208    8:20   79.6    16   10.9     5     20.2   899.0    0.00     509    84.6
 208    8:30   80.0    15   10.0     4     16.2   899.0    0.00     534    84.6
 208    8:40   80.7    15   10.4     4     20.8   899.0    0.00     557    84.5
 208    8:50   81.5    14    7.9     2     17.8   899.0    0.00     579    84.5
 208    9:00   82.1    14    7.4   359     15.8   899.0    0.00     602    84.5
 208    9:10   82.7    14    6.1   358     13.0   898.9    0.00     623    84.4
 208    9:20   83.4    13    7.0   358     17.1   898.8    0.00     641    84.4
 208    9:30   83.9    13    6.6     4     14.1   898.8    0.00     662    84.3
 208    9:40   84.1    13    7.1   358     14.9   898.9    0.00     681    84.3
 208    9:50   84.2    13    6.1   354     15.6   898.9    0.00     698    84.2
 208   10:00   84.7    12    6.6     2     12.8   898.9    0.00     716    84.2
 208   10:10   85.7    12    5.0    13     12.8   898.8    0.00     731    84.2
 208   10:20   86.3    12    5.6    14     14.1   898.8    0.00     744    84.2
 208   10:30   86.6    12    4.0    39      9.7   898.7    0.00     756    84.2
 208   10:40   87.9    11    4.6    37     11.8   898.5    0.00     766    84.1
 208   10:50   87.2    11    6.3    11     14.8   898.5    0.00     779    84.0
 208   11:00   87.6    10    5.3     2     15.2   898.5    0.00     783    84.0
 208   11:10   88.5    10    6.0   353     14.5   898.3    0.00     790    84.1
 208   11:20   88.1     9    6.7     0     15.6   898.3    0.00     802    84.1
 208   11:30   89.6     8    5.0   337     10.7   898.3    0.00     807    84.0
 208   11:40   89.6     8    5.7   348     15.2   898.2    0.00     812    84.0
 208   11:50   89.7     8    3.7   298      9.9   898.1    0.00     813    83.9
 208   12:00   90.1     8    6.1   337     12.8   898.0    0.00     814    83.9
 208   12:10   90.5     8    3.9   345     11.2   897.9    0.00     814    83.9
 208   12:20   91.5     8    5.4    11     12.9   897.8    0.00     803    84.0
 208   12:30   91.3     8    3.6   334     13.2   897.6    0.00     795    84.1
 208   12:40   90.8     8    7.0   354     14.5   897.6    0.00     791    84.1
 208   12:50   91.4     7    4.1   323     14.4   897.5    0.00     789    84.1
 208   13:00   92.0     7    5.7   357     13.7   897.4    0.00     782    84.1
 208   13:10   92.8     7    4.7   336     11.6   897.3    0.00     786    84.2
 208   13:20   92.1     7    5.2     0     12.6   897.3    0.00     767    84.2
 208   13:30   92.8     7    4.8   303     11.7   897.2    0.00     762    84.3
 208   13:40   92.4     7    6.2     0     16.7   897.1    0.00     743    84.3
 208   13:50   93.3     6    3.7    23      9.3   897.1    0.00     733    84.3
 208   14:00   93.8     6    4.7   338     10.0   897.0    0.00     726    84.4
 208   14:10   94.2     6    3.2   326      8.8   896.9    0.00     712    84.5
 208   14:20   94.4     6    6.0    22     18.5   896.7    0.00     691    84.5
 208   14:30   93.6     6    4.4   320     12.3   896.7    0.00     677    84.5
 208   14:40   94.4     6    4.0    18     10.6   896.5    0.00     654    84.6
 208   14:50   94.8     6    4.3     1      9.8   896.4    0.00     636    84.7
 208   15:00   94.1     5    5.9     6     12.1   896.3    0.00     614    84.7
 208   15:10   94.2     6    4.6    20     12.1   896.3    0.00     590    84.8
 208   15:20   94.3     5    4.7     7     10.3   896.3    0.00     566    84.9
 208   15:30   94.4     6    5.7   358     12.8   896.2    0.00     540    84.9
 208   15:40   93.8     6    4.1     3     11.5   896.1    0.00     514    85.0
 208   15:50   95.2     6    2.7    37      7.3   896.1    0.00     491    85.1
 208   16:00   94.9     5    4.8    11     10.7   896.0    0.00     467    85.2
 208   16:10   95.3     5    3.5   350     10.2   895.9    0.00     441    85.2
 208   16:20   95.0     6    3.9     2     14.1   895.9    0.00     413    85.3
 208   16:30   95.6     6    3.4   355     10.1   895.8    0.00     384    85.4
 208   16:40   95.3     6    5.1   348     12.2   895.7    0.00     359    85.4
 208   16:50   94.8     5    3.9   328     11.3   895.7    0.00     331    85.5
 208   17:00   95.1     5    5.7   356     13.2   895.7    0.00     304    85.6
 208   17:10   94.4     6    5.4     6      9.9   895.7    0.00     244    85.6
 208   17:20   94.6     5    4.9    12     11.8   895.7    0.00     246    85.7
 208   17:30   94.3     5    6.7    10     12.4   895.8    0.00     217    85.7
 208   17:40   94.2     6    4.5    17     10.7   895.8    0.00     189    85.8
 208   17:50   94.2     6    4.7    13     10.2   895.8    0.00     161    85.8
 208   18:00   93.8     6    4.5     7      9.1   895.9    0.00     135    85.8
 208   18:10   93.3     6    4.8    14     11.5   896.0    0.00     110    85.9
 208   18:20   92.6     6    5.5     2      9.9   896.1    0.00      83    85.9
 208   18:30   92.4     6    3.7     3      6.6   896.2    0.00      49    85.9
 208   18:40   91.2     6    3.0    18      6.1   896.2    0.00      12    86.0
 208   18:50   89.8     6    3.1    10      5.9   896.3    0.00       8    86.0
 208   19:00   88.9     7    2.2    34      4.9   896.4    0.00       5    86.0
 208   19:10   86.2     8    2.1    59      3.9   896.6    0.00       2    86.1
 208   19:20   84.4     8    2.2    57      4.7   896.7    0.00       0    86.1
 208   19:30   84.4     8    2.1    44      4.7   896.7    0.00       0    86.1
 208   19:40   84.5     7    1.5    44      4.9   896.8    0.00       0    86.1
 208   19:50   83.9     8    1.9    48      4.0   896.9    0.00       0    86.2
 208   20:00   83.5     8    2.7    17      5.4   897.0    0.00       0    86.2
 208   20:10   82.7     8    3.4    15      5.6   897.2    0.00       0    86.2
 208   20:20   82.4     8    2.5    42      7.1   897.3    0.00       0    86.2
 208   20:30   82.4     9    2.3    33      5.3   897.5    0.00       0    86.3
 208   20:40   81.8     9    3.2     9      6.5   897.7    0.00       0    86.3
 208   20:50   81.2     9    2.5    18      5.5   897.8    0.00       0    86.3
 208   21:00   80.4     9    3.3    12      7.0   897.9    0.00       0    86.3
 208   21:10   80.4     9    2.9    30      6.9   898.0    0.00       0    86.3
 208   21:20   79.4    10    3.0    15      6.6   898.2    0.00       0    86.3
 208   21:30   78.3    10    3.2     3      6.5   898.2    0.00       0    86.3
 208   21:40   77.5    10    2.6    52      5.6   898.2    0.00       0    86.3
 208   21:50   77.8    10    2.7    52      7.5   898.1    0.00       0    86.3
 208   22:00   78.8     9    3.3    14      7.7   898.1    0.00       0    86.3
 208   22:10   78.3     9    2.7   350      8.1   898.3    0.00       0    86.3
 208   22:20   80.3     8    3.9    80      7.9   898.4    0.00       0    86.4
 208   22:30   79.7     8    2.6     5      6.6   898.4    0.00       0    86.4
 208   22:40   76.8     9    3.0   360      7.7   898.4    0.00       0    86.4
 208   22:50   77.8     8    3.1    22      6.9   898.5    0.00       0    86.4
 208   23:00   78.1     8    3.0    12      6.5   898.6    0.00       0    86.4
 208   23:10   75.3    10    3.6   340      7.2   898.6    0.00       0    86.4
 208   23:20   74.8    10    2.8     1      6.0   898.6    0.00       0    86.3
 208   23:30   76.0     9    3.2   350      7.3   898.7    0.00       0    86.3
 208   23:40   75.6     9    3.3     4      7.5   898.7    0.00       0    86.3
 208   23:50   77.9     8    3.3    71      7.6   898.7    0.00       0    86.3
 209    0:00   78.1     8    4.1    63     10.9   898.7    0.00       0    86.3
 209    0:10   77.7     9    4.7    64     11.0   898.8    0.00       0    86.3
 209    0:20   76.9     9    3.7    55      9.3   898.9    0.00       0    86.3
 209    0:30   75.7     9    4.3    57     11.0   899.0    0.00       0    86.3
 209    0:40   75.5    10    4.4    59      9.6   899.1    0.00       0    86.2
 209    0:50   75.1    10    4.1    63      9.9   899.1    0.00       0    86.2
 209    1:00   75.2    10    3.7    21      9.9   898.9    0.00       0    86.2
 209    1:10   74.4    11    3.5    20      7.2   898.9    0.00       0    86.2
 209    1:20   73.7    11    3.3    16      6.9   899.0    0.00       0    86.1
 209    1:30   74.2    10    3.1    37      6.9   899.0    0.00       0    86.1
 209    1:40   74.8    10    3.2    23      8.0   899.0    0.00       0    86.1
 209    1:50   72.9    11    4.2    11      6.9   899.0    0.00       0    86.1
 209    2:00   72.6    11    3.5    36      8.3   899.1    0.00       0    86.1
 209    2:10   73.8    11    4.4    10      7.8   899.1    0.00       0    86.0
 209    2:20   71.8    12    3.8    16      8.4   899.1    0.00       0    86.0
 209    2:30   71.9    12    2.8    22      7.5   899.2    0.00       0    86.0
 209    2:40   74.2    11    3.1    34      8.6   899.3    0.00       0    85.9
 209    2:50   73.9    11    3.4    14      8.6   899.3    0.00       0    85.9
 209    3:00   72.2    12    4.6    25     10.6   899.4    0.00       0    85.9

Return to Beatty, Nevada graphs page.


Western Regional Climate Center,wrcc@dri.edu